Aérodrome :
LOGIN :

S'inscrire | Disclaimer

   EN    FR    IT 

 










Légende :    VFR   VFR Marginal   IFR   IFR Intensif   IFR Très Intensif
Visi : 
Plafond : 
>= 8 km
>= 3000ft
5 à 8 km
1000 à 3000 ft
1500m à 5 km
500 à 1000 ft
800 à 1500m
200 à 500 ft
< 800m
< 200 ft
Symboles :   Orages  Brouillard  Fortes neiges  Fortes précipitations  Vent > 20 kt
SIGMETs :   Divers  Orages  Givrage  Turbulence  Onde Orograph.  Cendres Volcan.






- Altitude de l'aérodrome : 913 ft


LFSX - Luxeuil

DERNIER METAR :
  • 301200Z AUTO 00000KT 4200 -RADZ BR OVC013 00/M01 Q1026

METARs EXPIRÉS :
  • 301130Z AUTO VRB02KT 9999 OVC013 M00/M02 Q1027
  • 301100Z AUTO 19003KT 100V240 9999 BKN012 OVC017 M00/M01 Q1027
  • 301030Z AUTO VRB02KT 3100 -SN BR OVC010 M01/M02 Q1027
  • 301000Z AUTO 17004KT 130V220 6000 BKN011 OVC021 M01/M02 Q1027
  • 300930Z AUTO 14004KT 100V170 4200 -FZDZ BR BKN010 OVC014 M01/M02 Q1028

TAF TAF LFSX
Valide du 30 à 09h jusqu'au 31 à 09h UTC


300800Z 3009/3109 06005KT 1000 SN BKN009
BECMG 3018/3020 9999 NSW OVC003



MET'MAP, la Météo Aéronautique d'un coup d'oeil ! - Copyright ORBIFLY Décembre 2007 - Disclaimer

ORBIFLY MET'MAP TEAM :

Programmation & Développement : Alexandra Zaïnal
Sur une idée originale de : Baudouin d'Aumeries
Soutien technique & logistique : Manuel Goepfert
Assistance : Marc-Olivier Méhu




SOURCES & CREDITS :

   NOAA